sensor_id;sensor_type;location;lat;lon;timestamp;temperature;humidity
20534;DHT22;12929;56.822;26.056;2023-07-29T00:00:11;15.70;99.90
20534;DHT22;12929;56.822;26.056;2023-07-29T00:02:40;15.50;99.90
20534;DHT22;12929;56.822;26.056;2023-07-29T00:05:08;15.50;99.90
20534;DHT22;12929;56.822;26.056;2023-07-29T00:07:36;15.40;99.90
20534;DHT22;12929;56.822;26.056;2023-07-29T00:10:04;15.40;99.90
20534;DHT22;12929;56.822;26.056;2023-07-29T00:12:32;15.60;99.90
20534;DHT22;12929;56.822;26.056;2023-07-29T00:14:59;15.50;99.90
20534;DHT22;12929;56.822;26.056;2023-07-29T00:17:27;15.40;99.90
20534;DHT22;12929;56.822;26.056;2023-07-29T00:19:55;15.50;99.90
20534;DHT22;12929;56.822;26.056;2023-07-29T00:22:23;15.50;99.90
20534;DHT22;12929;56.822;26.056;2023-07-29T00:24:53;15.50;99.90
20534;DHT22;12929;56.822;26.056;2023-07-29T00:27:27;15.50;99.90
20534;DHT22;12929;56.822;26.056;2023-07-29T00:29:54;15.30;99.90
20534;DHT22;12929;56.822;26.056;2023-07-29T00:32:22;15.20;99.90
20534;DHT22;12929;56.822;26.056;2023-07-29T00:34:50;15.10;99.90
20534;DHT22;12929;56.822;26.056;2023-07-29T00:37:17;15.20;99.90
20534;DHT22;12929;56.822;26.056;2023-07-29T00:39:45;15.10;99.90
20534;DHT22;12929;56.822;26.056;2023-07-29T00:42:14;15.10;99.90
20534;DHT22;12929;56.822;26.056;2023-07-29T00:44:42;15.20;99.90
20534;DHT22;12929;56.822;26.056;2023-07-29T00:47:11;15.30;99.90
20534;DHT22;12929;56.822;26.056;2023-07-29T00:49:42;15.20;99.90
20534;DHT22;12929;56.822;26.056;2023-07-29T00:52:11;15.10;99.90
20534;DHT22;12929;56.822;26.056;2023-07-29T00:54:40;15.10;99.90
20534;DHT22;12929;56.822;26.056;2023-07-29T00:57:12;14.90;99.90
20534;DHT22;12929;56.822;26.056;2023-07-29T00:59:41;14.90;99.90
20534;DHT22;12929;56.822;26.056;2023-07-29T01:02:09;14.90;99.90
20534;DHT22;12929;56.822;26.056;2023-07-29T01:04:37;15.10;99.90
20534;DHT22;12929;56.822;26.056;2023-07-29T01:07:33;15.30;99.90
20534;DHT22;12929;56.822;26.056;2023-07-29T01:10:10;15.10;99.90
20534;DHT22;12929;56.822;26.056;2023-07-29T01:12:51;14.90;99.90
20534;DHT22;12929;56.822;26.056;2023-07-29T01:15:30;14.80;99.90
20534;DHT22;12929;56.822;26.056;2023-07-29T01:18:12;14.90;99.90
20534;DHT22;12929;56.822;26.056;2023-07-29T01:20:42;15.00;99.90
20534;DHT22;12929;56.822;26.056;2023-07-29T01:23:11;15.10;99.90
20534;DHT22;12929;56.822;26.056;2023-07-29T01:25:39;15.30;99.90
20534;DHT22;12929;56.822;26.056;2023-07-29T01:28:07;15.40;99.90
20534;DHT22;12929;56.822;26.056;2023-07-29T01:30:40;15.20;99.90
20534;DHT22;12929;56.822;26.056;2023-07-29T01:33:18;15.20;99.90
20534;DHT22;12929;56.822;26.056;2023-07-29T01:35:55;15.30;99.90
20534;DHT22;12929;56.822;26.056;2023-07-29T01:41:06;15.10;99.90
20534;DHT22;12929;56.822;26.056;2023-07-29T01:43:35;14.90;99.90
20534;DHT22;12929;56.822;26.056;2023-07-29T01:46:10;15.00;99.90
20534;DHT22;12929;56.822;26.056;2023-07-29T01:48:39;15.00;99.90
20534;DHT22;12929;56.822;26.056;2023-07-29T01:51:07;15.10;99.90
20534;DHT22;12929;56.822;26.056;2023-07-29T01:53:37;14.90;99.90
20534;DHT22;12929;56.822;26.056;2023-07-29T01:56:05;14.90;99.90
20534;DHT22;12929;56.822;26.056;2023-07-29T01:58:34;14.90;99.90
20534;DHT22;12929;56.822;26.056;2023-07-29T02:01:02;14.70;99.90
20534;DHT22;12929;56.822;26.056;2023-07-29T02:03:30;14.70;99.90
20534;DHT22;12929;56.822;26.056;2023-07-29T02:05:57;14.60;99.90
20534;DHT22;12929;56.822;26.056;2023-07-29T02:08:25;14.50;99.90
20534;DHT22;12929;56.822;26.056;2023-07-29T02:10:53;14.50;99.90
20534;DHT22;12929;56.822;26.056;2023-07-29T02:13:21;14.70;99.90
20534;DHT22;12929;56.822;26.056;2023-07-29T02:15:48;14.50;99.90
20534;DHT22;12929;56.822;26.056;2023-07-29T02:18:16;14.50;99.90
20534;DHT22;12929;56.822;26.056;2023-07-29T02:20:44;14.50;99.90
20534;DHT22;12929;56.822;26.056;2023-07-29T02:23:17;14.50;99.90
20534;DHT22;12929;56.822;26.056;2023-07-29T02:25:44;14.40;99.90
20534;DHT22;12929;56.822;26.056;2023-07-29T02:28:12;14.30;99.90
20534;DHT22;12929;56.822;26.056;2023-07-29T02:30:41;14.30;99.90
20534;DHT22;12929;56.822;26.056;2023-07-29T02:33:13;14.20;99.90
20534;DHT22;12929;56.822;26.056;2023-07-29T02:35:40;14.20;99.90
20534;DHT22;12929;56.822;26.056;2023-07-29T02:38:08;14.20;99.90
20534;DHT22;12929;56.822;26.056;2023-07-29T02:40:37;14.20;99.90
20534;DHT22;12929;56.822;26.056;2023-07-29T02:43:05;14.20;99.90
20534;DHT22;12929;56.822;26.056;2023-07-29T02:45:33;14.30;99.90
20534;DHT22;12929;56.822;26.056;2023-07-29T02:48:00;14.30;99.90
20534;DHT22;12929;56.822;26.056;2023-07-29T02:50:28;14.40;99.90
20534;DHT22;12929;56.822;26.056;2023-07-29T02:52:56;14.40;99.90
20534;DHT22;12929;56.822;26.056;2023-07-29T02:55:23;14.40;99.90
20534;DHT22;12929;56.822;26.056;2023-07-29T02:57:51;14.60;99.90
20534;DHT22;12929;56.822;26.056;2023-07-29T03:00:19;14.60;99.90
20534;DHT22;12929;56.822;26.056;2023-07-29T03:02:46;14.40;99.90
20534;DHT22;12929;56.822;26.056;2023-07-29T03:05:14;14.30;99.90
20534;DHT22;12929;56.822;26.056;2023-07-29T03:07:42;14.30;99.90
20534;DHT22;12929;56.822;26.056;2023-07-29T03:10:10;14.40;99.90
20534;DHT22;12929;56.822;26.056;2023-07-29T03:12:38;14.20;99.90
20534;DHT22;12929;56.822;26.056;2023-07-29T03:15:06;14.50;99.90
20534;DHT22;12929;56.822;26.056;2023-07-29T03:17:34;14.40;99.90
20534;DHT22;12929;56.822;26.056;2023-07-29T03:20:02;14.50;99.90
20534;DHT22;12929;56.822;26.056;2023-07-29T03:22:30;14.50;99.90
20534;DHT22;12929;56.822;26.056;2023-07-29T03:24:57;14.50;99.90
20534;DHT22;12929;56.822;26.056;2023-07-29T03:27:25;14.40;99.90
20534;DHT22;12929;56.822;26.056;2023-07-29T03:29:52;14.30;99.90
20534;DHT22;12929;56.822;26.056;2023-07-29T03:32:20;14.30;99.90
20534;DHT22;12929;56.822;26.056;2023-07-29T03:34:48;14.30;99.90
20534;DHT22;12929;56.822;26.056;2023-07-29T03:37:16;14.50;99.90
20534;DHT22;12929;56.822;26.056;2023-07-29T03:39:43;14.50;99.90
20534;DHT22;12929;56.822;26.056;2023-07-29T03:42:11;14.40;99.90
20534;DHT22;12929;56.822;26.056;2023-07-29T03:44:39;14.60;99.90
20534;DHT22;12929;56.822;26.056;2023-07-29T03:47:07;14.60;99.90
20534;DHT22;12929;56.822;26.056;2023-07-29T03:49:36;14.50;99.90
20534;DHT22;12929;56.822;26.056;2023-07-29T03:52:06;14.50;99.90
20534;DHT22;12929;56.822;26.056;2023-07-29T03:54:34;14.40;99.90
20534;DHT22;12929;56.822;26.056;2023-07-29T03:57:02;14.30;99.90
20534;DHT22;12929;56.822;26.056;2023-07-29T03:59:30;14.40;99.90
20534;DHT22;12929;56.822;26.056;2023-07-29T04:01:58;14.20;99.90
20534;DHT22;12929;56.822;26.056;2023-07-29T04:04:25;14.20;99.90
20534;DHT22;12929;56.822;26.056;2023-07-29T04:06:54;14.30;99.90
20534;DHT22;12929;56.822;26.056;2023-07-29T04:09:22;14.40;99.90
20534;DHT22;12929;56.822;26.056;2023-07-29T04:11:51;14.40;99.90
20534;DHT22;12929;56.822;26.056;2023-07-29T04:14:19;14.40;99.90
20534;DHT22;12929;56.822;26.056;2023-07-29T04:16:46;14.30;99.90
20534;DHT22;12929;56.822;26.056;2023-07-29T04:19:16;14.40;99.90
20534;DHT22;12929;56.822;26.056;2023-07-29T04:21:44;14.40;99.90
20534;DHT22;12929;56.822;26.056;2023-07-29T04:24:12;14.30;99.90
20534;DHT22;12929;56.822;26.056;2023-07-29T04:26:39;14.30;99.90
20534;DHT22;12929;56.822;26.056;2023-07-29T04:29:07;14.10;99.90
20534;DHT22;12929;56.822;26.056;2023-07-29T04:31:35;14.10;99.90
20534;DHT22;12929;56.822;26.056;2023-07-29T04:34:04;14.20;99.90
20534;DHT22;12929;56.822;26.056;2023-07-29T04:36:33;14.20;99.90
20534;DHT22;12929;56.822;26.056;2023-07-29T04:39:01;14.30;99.90
20534;DHT22;12929;56.822;26.056;2023-07-29T04:41:29;14.30;99.90
20534;DHT22;12929;56.822;26.056;2023-07-29T04:43:57;14.40;99.90
20534;DHT22;12929;56.822;26.056;2023-07-29T04:46:24;14.50;99.90
20534;DHT22;12929;56.822;26.056;2023-07-29T04:48:52;14.40;99.90
20534;DHT22;12929;56.822;26.056;2023-07-29T04:51:20;14.30;99.90
20534;DHT22;12929;56.822;26.056;2023-07-29T04:53:48;14.20;99.90
20534;DHT22;12929;56.822;26.056;2023-07-29T04:56:17;14.30;99.90
20534;DHT22;12929;56.822;26.056;2023-07-29T04:58:45;14.20;99.90
20534;DHT22;12929;56.822;26.056;2023-07-29T05:01:13;14.20;99.90
20534;DHT22;12929;56.822;26.056;2023-07-29T05:03:41;14.20;99.90
20534;DHT22;12929;56.822;26.056;2023-07-29T05:06:09;14.30;99.90
20534;DHT22;12929;56.822;26.056;2023-07-29T05:08:37;14.40;99.90
20534;DHT22;12929;56.822;26.056;2023-07-29T05:11:05;14.50;99.90
20534;DHT22;12929;56.822;26.056;2023-07-29T05:13:33;14.50;99.90
20534;DHT22;12929;56.822;26.056;2023-07-29T05:16:01;14.30;99.90
20534;DHT22;12929;56.822;26.056;2023-07-29T05:18:29;14.20;99.90
20534;DHT22;12929;56.822;26.056;2023-07-29T05:20:56;14.20;99.90
20534;DHT22;12929;56.822;26.056;2023-07-29T05:23:24;14.30;99.90
20534;DHT22;12929;56.822;26.056;2023-07-29T05:25:52;14.20;99.90
20534;DHT22;12929;56.822;26.056;2023-07-29T05:28:20;14.30;99.90
20534;DHT22;12929;56.822;26.056;2023-07-29T05:30:47;14.40;99.90
20534;DHT22;12929;56.822;26.056;2023-07-29T05:33:15;14.30;99.90
20534;DHT22;12929;56.822;26.056;2023-07-29T05:35:43;14.30;99.90
20534;DHT22;12929;56.822;26.056;2023-07-29T05:38:11;14.30;99.90
20534;DHT22;12929;56.822;26.056;2023-07-29T05:40:40;14.50;99.90
20534;DHT22;12929;56.822;26.056;2023-07-29T05:43:08;14.50;99.90
20534;DHT22;12929;56.822;26.056;2023-07-29T05:45:36;14.60;99.90
20534;DHT22;12929;56.822;26.056;2023-07-29T05:48:04;14.70;99.90
20534;DHT22;12929;56.822;26.056;2023-07-29T05:50:32;14.60;99.90
20534;DHT22;12929;56.822;26.056;2023-07-29T05:53:00;14.80;99.90
20534;DHT22;12929;56.822;26.056;2023-07-29T05:55:29;14.80;99.90
20534;DHT22;12929;56.822;26.056;2023-07-29T05:57:56;14.80;99.90
20534;DHT22;12929;56.822;26.056;2023-07-29T06:00:25;14.90;99.90
20534;DHT22;12929;56.822;26.056;2023-07-29T06:02:53;14.90;99.90
20534;DHT22;12929;56.822;26.056;2023-07-29T06:05:22;15.00;99.90
20534;DHT22;12929;56.822;26.056;2023-07-29T06:07:49;15.00;99.90
20534;DHT22;12929;56.822;26.056;2023-07-29T06:10:17;15.00;99.90
20534;DHT22;12929;56.822;26.056;2023-07-29T06:12:46;15.10;99.90
20534;DHT22;12929;56.822;26.056;2023-07-29T06:15:14;15.10;99.90
20534;DHT22;12929;56.822;26.056;2023-07-29T06:17:42;15.10;99.90
20534;DHT22;12929;56.822;26.056;2023-07-29T06:20:10;15.30;99.90
20534;DHT22;12929;56.822;26.056;2023-07-29T06:22:38;15.30;99.90
20534;DHT22;12929;56.822;26.056;2023-07-29T06:25:06;15.20;99.90
20534;DHT22;12929;56.822;26.056;2023-07-29T06:27:33;15.20;99.90
20534;DHT22;12929;56.822;26.056;2023-07-29T06:30:01;15.20;99.90
20534;DHT22;12929;56.822;26.056;2023-07-29T06:32:29;15.40;99.90
20534;DHT22;12929;56.822;26.056;2023-07-29T06:34:57;15.50;99.90
20534;DHT22;12929;56.822;26.056;2023-07-29T06:37:24;15.50;99.90
20534;DHT22;12929;56.822;26.056;2023-07-29T06:39:52;15.50;99.90
20534;DHT22;12929;56.822;26.056;2023-07-29T06:42:20;15.60;99.90
20534;DHT22;12929;56.822;26.056;2023-07-29T06:44:47;15.70;99.90
20534;DHT22;12929;56.822;26.056;2023-07-29T06:47:15;15.70;99.90
20534;DHT22;12929;56.822;26.056;2023-07-29T06:49:43;15.60;99.90
20534;DHT22;12929;56.822;26.056;2023-07-29T06:52:10;15.50;99.90
20534;DHT22;12929;56.822;26.056;2023-07-29T06:54:38;15.50;99.90
20534;DHT22;12929;56.822;26.056;2023-07-29T06:57:06;15.70;99.90
20534;DHT22;12929;56.822;26.056;2023-07-29T06:59:35;15.70;99.90
20534;DHT22;12929;56.822;26.056;2023-07-29T07:02:07;15.80;99.90
20534;DHT22;12929;56.822;26.056;2023-07-29T07:04:34;15.90;99.90
20534;DHT22;12929;56.822;26.056;2023-07-29T07:07:03;16.00;99.90
20534;DHT22;12929;56.822;26.056;2023-07-29T07:09:31;16.10;99.90
20534;DHT22;12929;56.822;26.056;2023-07-29T07:12:01;16.20;99.90
20534;DHT22;12929;56.822;26.056;2023-07-29T07:14:29;16.20;99.90
20534;DHT22;12929;56.822;26.056;2023-07-29T07:16:57;16.20;99.90
20534;DHT22;12929;56.822;26.056;2023-07-29T07:19:25;16.10;99.90
20534;DHT22;12929;56.822;26.056;2023-07-29T07:21:54;16.20;99.90
20534;DHT22;12929;56.822;26.056;2023-07-29T07:24:22;16.30;99.90
20534;DHT22;12929;56.822;26.056;2023-07-29T07:26:51;16.30;99.90
20534;DHT22;12929;56.822;26.056;2023-07-29T07:29:19;16.30;99.90
20534;DHT22;12929;56.822;26.056;2023-07-29T07:31:56;16.10;99.90
20534;DHT22;12929;56.822;26.056;2023-07-29T07:34:24;15.90;99.90
20534;DHT22;12929;56.822;26.056;2023-07-29T07:36:53;16.00;99.90
20534;DHT22;12929;56.822;26.056;2023-07-29T07:39:22;16.30;99.90
20534;DHT22;12929;56.822;26.056;2023-07-29T07:41:50;16.30;99.90
20534;DHT22;12929;56.822;26.056;2023-07-29T07:44:18;16.40;99.90
20534;DHT22;12929;56.822;26.056;2023-07-29T07:46:46;16.40;99.90
20534;DHT22;12929;56.822;26.056;2023-07-29T07:49:15;16.50;99.90
20534;DHT22;12929;56.822;26.056;2023-07-29T07:51:43;16.60;99.90
20534;DHT22;12929;56.822;26.056;2023-07-29T07:54:11;16.70;99.90
20534;DHT22;12929;56.822;26.056;2023-07-29T07:56:39;16.70;99.90
20534;DHT22;12929;56.822;26.056;2023-07-29T07:59:07;16.80;99.90
20534;DHT22;12929;56.822;26.056;2023-07-29T08:01:39;17.00;99.90
20534;DHT22;12929;56.822;26.056;2023-07-29T08:04:07;17.00;99.90
20534;DHT22;12929;56.822;26.056;2023-07-29T08:06:35;17.10;99.90
20534;DHT22;12929;56.822;26.056;2023-07-29T08:09:03;17.10;99.90
20534;DHT22;12929;56.822;26.056;2023-07-29T08:11:31;17.10;99.90
20534;DHT22;12929;56.822;26.056;2023-07-29T08:13:59;17.20;99.90
20534;DHT22;12929;56.822;26.056;2023-07-29T08:16:29;17.30;99.90
20534;DHT22;12929;56.822;26.056;2023-07-29T08:18:59;17.50;99.90
20534;DHT22;12929;56.822;26.056;2023-07-29T08:21:27;17.50;99.90
20534;DHT22;12929;56.822;26.056;2023-07-29T08:23:56;17.40;99.90
20534;DHT22;12929;56.822;26.056;2023-07-29T08:26:24;17.30;99.90
20534;DHT22;12929;56.822;26.056;2023-07-29T08:28:52;17.10;99.90
20534;DHT22;12929;56.822;26.056;2023-07-29T08:31:21;17.00;99.90
20534;DHT22;12929;56.822;26.056;2023-07-29T08:33:49;17.00;99.90
20534;DHT22;12929;56.822;26.056;2023-07-29T08:36:18;17.20;99.90
20534;DHT22;12929;56.822;26.056;2023-07-29T08:38:46;17.20;99.90
20534;DHT22;12929;56.822;26.056;2023-07-29T08:41:19;17.60;99.90
20534;DHT22;12929;56.822;26.056;2023-07-29T08:43:56;17.50;99.90
20534;DHT22;12929;56.822;26.056;2023-07-29T08:46:28;17.60;99.90
20534;DHT22;12929;56.822;26.056;2023-07-29T08:48:57;17.70;99.90
20534;DHT22;12929;56.822;26.056;2023-07-29T08:51:26;17.60;99.90
20534;DHT22;12929;56.822;26.056;2023-07-29T08:53:53;17.50;99.90
20534;DHT22;12929;56.822;26.056;2023-07-29T08:56:22;17.60;99.90
20534;DHT22;12929;56.822;26.056;2023-07-29T08:58:51;17.80;99.90
20534;DHT22;12929;56.822;26.056;2023-07-29T09:01:19;17.80;99.90
20534;DHT22;12929;56.822;26.056;2023-07-29T09:03:47;18.10;99.90
20534;DHT22;12929;56.822;26.056;2023-07-29T09:06:15;18.10;99.90
20534;DHT22;12929;56.822;26.056;2023-07-29T09:08:44;18.10;99.90
20534;DHT22;12929;56.822;26.056;2023-07-29T09:11:14;18.20;99.90
20534;DHT22;12929;56.822;26.056;2023-07-29T09:13:47;18.10;99.90
20534;DHT22;12929;56.822;26.056;2023-07-29T09:16:16;18.20;99.90
20534;DHT22;12929;56.822;26.056;2023-07-29T09:18:45;18.30;99.90
20534;DHT22;12929;56.822;26.056;2023-07-29T09:21:18;18.20;99.90
20534;DHT22;12929;56.822;26.056;2023-07-29T09:23:50;18.00;99.90
20534;DHT22;12929;56.822;26.056;2023-07-29T09:26:27;17.90;99.90
20534;DHT22;12929;56.822;26.056;2023-07-29T09:28:57;17.70;99.90
20534;DHT22;12929;56.822;26.056;2023-07-29T09:31:26;17.50;99.90
20534;DHT22;12929;56.822;26.056;2023-07-29T09:34:03;17.40;99.90
20534;DHT22;12929;56.822;26.056;2023-07-29T09:36:33;17.40;99.90
20534;DHT22;12929;56.822;26.056;2023-07-29T09:39:02;17.20;99.90
20534;DHT22;12929;56.822;26.056;2023-07-29T09:41:31;17.10;99.90
20534;DHT22;12929;56.822;26.056;2023-07-29T09:44:01;17.10;99.90
20534;DHT22;12929;56.822;26.056;2023-07-29T09:46:37;17.20;99.90
20534;DHT22;12929;56.822;26.056;2023-07-29T09:49:07;17.40;99.90
20534;DHT22;12929;56.822;26.056;2023-07-29T09:51:38;17.70;99.90
20534;DHT22;12929;56.822;26.056;2023-07-29T09:54:11;18.00;99.90
20534;DHT22;12929;56.822;26.056;2023-07-29T09:56:42;18.40;99.90
20534;DHT22;12929;56.822;26.056;2023-07-29T09:59:12;18.70;99.90
20534;DHT22;12929;56.822;26.056;2023-07-29T10:01:41;18.80;99.90
20534;DHT22;12929;56.822;26.056;2023-07-29T10:04:11;18.40;99.90
20534;DHT22;12929;56.822;26.056;2023-07-29T10:06:41;18.20;99.90
20534;DHT22;12929;56.822;26.056;2023-07-29T10:09:11;18.20;99.90
20534;DHT22;12929;56.822;26.056;2023-07-29T10:11:41;18.40;99.90
20534;DHT22;12929;56.822;26.056;2023-07-29T10:14:09;18.20;99.90
20534;DHT22;12929;56.822;26.056;2023-07-29T10:16:40;18.00;99.90
20534;DHT22;12929;56.822;26.056;2023-07-29T10:19:10;18.20;99.90
20534;DHT22;12929;56.822;26.056;2023-07-29T10:21:39;18.70;99.90
20534;DHT22;12929;56.822;26.056;2023-07-29T10:24:14;18.90;99.90
20534;DHT22;12929;56.822;26.056;2023-07-29T10:26:46;19.00;99.90
20534;DHT22;12929;56.822;26.056;2023-07-29T10:29:19;19.10;99.90
20534;DHT22;12929;56.822;26.056;2023-07-29T10:31:48;19.00;99.90
20534;DHT22;12929;56.822;26.056;2023-07-29T10:34:20;18.70;99.90
20534;DHT22;12929;56.822;26.056;2023-07-29T10:36:49;18.50;99.90
20534;DHT22;12929;56.822;26.056;2023-07-29T10:39:17;18.60;99.90
20534;DHT22;12929;56.822;26.056;2023-07-29T10:42:01;18.80;99.90
20534;DHT22;12929;56.822;26.056;2023-07-29T10:47:26;19.20;99.90
20534;DHT22;12929;56.822;26.056;2023-07-29T10:49:56;19.30;99.90
20534;DHT22;12929;56.822;26.056;2023-07-29T10:55:02;19.50;99.90
20534;DHT22;12929;56.822;26.056;2023-07-29T10:57:36;19.40;99.90
20534;DHT22;12929;56.822;26.056;2023-07-29T11:00:05;19.40;99.90
20534;DHT22;12929;56.822;26.056;2023-07-29T11:02:35;19.50;99.90
20534;DHT22;12929;56.822;26.056;2023-07-29T11:05:21;19.60;99.90
20534;DHT22;12929;56.822;26.056;2023-07-29T11:07:49;19.60;99.90
20534;DHT22;12929;56.822;26.056;2023-07-29T11:10:17;19.40;99.90
20534;DHT22;12929;56.822;26.056;2023-07-29T11:12:49;19.40;99.90
20534;DHT22;12929;56.822;26.056;2023-07-29T11:15:22;19.30;99.90
20534;DHT22;12929;56.822;26.056;2023-07-29T11:17:59;19.40;99.90
20534;DHT22;12929;56.822;26.056;2023-07-29T11:20:32;19.40;99.90
20534;DHT22;12929;56.822;26.056;2023-07-29T11:23:03;19.50;99.90
20534;DHT22;12929;56.822;26.056;2023-07-29T11:25:31;20.00;99.90
20534;DHT22;12929;56.822;26.056;2023-07-29T11:28:01;20.20;99.90
20534;DHT22;12929;56.822;26.056;2023-07-29T11:30:33;19.90;99.90
20534;DHT22;12929;56.822;26.056;2023-07-29T11:33:01;19.90;99.90
20534;DHT22;12929;56.822;26.056;2023-07-29T11:35:29;19.90;99.90
20534;DHT22;12929;56.822;26.056;2023-07-29T11:37:57;20.30;99.90
20534;DHT22;12929;56.822;26.056;2023-07-29T11:40:25;19.90;99.90
20534;DHT22;12929;56.822;26.056;2023-07-29T11:42:53;19.70;99.90
20534;DHT22;12929;56.822;26.056;2023-07-29T11:45:22;19.50;99.90
20534;DHT22;12929;56.822;26.056;2023-07-29T11:48:02;19.60;99.90
20534;DHT22;12929;56.822;26.056;2023-07-29T11:50:30;20.00;99.90
20534;DHT22;12929;56.822;26.056;2023-07-29T11:52:58;20.40;99.90
20534;DHT22;12929;56.822;26.056;2023-07-29T11:55:26;20.60;99.90
20534;DHT22;12929;56.822;26.056;2023-07-29T11:57:54;20.80;99.90
20534;DHT22;12929;56.822;26.056;2023-07-29T12:00:22;20.90;99.90
20534;DHT22;12929;56.822;26.056;2023-07-29T12:02:50;21.10;99.90
20534;DHT22;12929;56.822;26.056;2023-07-29T12:05:20;21.20;99.90
20534;DHT22;12929;56.822;26.056;2023-07-29T12:07:49;21.40;99.90
20534;DHT22;12929;56.822;26.056;2023-07-29T12:10:17;21.40;99.90
20534;DHT22;12929;56.822;26.056;2023-07-29T12:12:50;21.20;99.90
20534;DHT22;12929;56.822;26.056;2023-07-29T12:15:25;21.20;99.90
20534;DHT22;12929;56.822;26.056;2023-07-29T12:17:57;21.00;99.90
20534;DHT22;12929;56.822;26.056;2023-07-29T12:20:26;21.00;99.90
20534;DHT22;12929;56.822;26.056;2023-07-29T12:22:59;21.30;99.90
20534;DHT22;12929;56.822;26.056;2023-07-29T12:25:33;21.70;99.90
20534;DHT22;12929;56.822;26.056;2023-07-29T12:28:10;21.80;99.90
20534;DHT22;12929;56.822;26.056;2023-07-29T12:30:42;22.10;99.90
20534;DHT22;12929;56.822;26.056;2023-07-29T12:33:10;21.70;99.90
20534;DHT22;12929;56.822;26.056;2023-07-29T12:35:38;21.80;99.90
20534;DHT22;12929;56.822;26.056;2023-07-29T12:38:06;21.90;99.90
20534;DHT22;12929;56.822;26.056;2023-07-29T12:40:38;22.00;99.90
20534;DHT22;12929;56.822;26.056;2023-07-29T12:43:07;21.90;99.90
20534;DHT22;12929;56.822;26.056;2023-07-29T12:45:38;21.90;99.90
20534;DHT22;12929;56.822;26.056;2023-07-29T12:48:09;21.70;99.90
20534;DHT22;12929;56.822;26.056;2023-07-29T12:50:37;21.70;99.90
20534;DHT22;12929;56.822;26.056;2023-07-29T12:53:07;22.00;99.90
20534;DHT22;12929;56.822;26.056;2023-07-29T12:55:35;21.90;99.90
20534;DHT22;12929;56.822;26.056;2023-07-29T12:58:03;21.70;99.90
20534;DHT22;12929;56.822;26.056;2023-07-29T13:00:31;21.40;99.90
20534;DHT22;12929;56.822;26.056;2023-07-29T13:02:59;21.40;99.90
20534;DHT22;12929;56.822;26.056;2023-07-29T13:05:27;21.60;99.90
20534;DHT22;12929;56.822;26.056;2023-07-29T13:07:55;21.80;99.90
20534;DHT22;12929;56.822;26.056;2023-07-29T13:10:22;22.00;99.90
20534;DHT22;12929;56.822;26.056;2023-07-29T13:12:50;22.10;99.90
20534;DHT22;12929;56.822;26.056;2023-07-29T13:15:18;22.00;99.90
20534;DHT22;12929;56.822;26.056;2023-07-29T13:17:46;21.80;99.90
20534;DHT22;12929;56.822;26.056;2023-07-29T13:20:13;21.60;99.90
20534;DHT22;12929;56.822;26.056;2023-07-29T13:22:41;21.50;99.90
20534;DHT22;12929;56.822;26.056;2023-07-29T13:25:08;21.70;99.90
20534;DHT22;12929;56.822;26.056;2023-07-29T13:27:36;21.90;99.90
20534;DHT22;12929;56.822;26.056;2023-07-29T13:30:05;22.30;99.90
20534;DHT22;12929;56.822;26.056;2023-07-29T13:32:33;22.30;99.90
20534;DHT22;12929;56.822;26.056;2023-07-29T13:35:00;22.40;99.90
20534;DHT22;12929;56.822;26.056;2023-07-29T13:37:29;22.50;99.90
20534;DHT22;12929;56.822;26.056;2023-07-29T13:39:59;22.30;99.90
20534;DHT22;12929;56.822;26.056;2023-07-29T13:42:26;22.20;99.90
20534;DHT22;12929;56.822;26.056;2023-07-29T13:44:54;22.20;99.90
20534;DHT22;12929;56.822;26.056;2023-07-29T13:47:22;22.60;99.90
20534;DHT22;12929;56.822;26.056;2023-07-29T13:49:49;22.60;99.90
20534;DHT22;12929;56.822;26.056;2023-07-29T13:52:17;22.70;99.90
20534;DHT22;12929;56.822;26.056;2023-07-29T13:54:45;22.40;99.90
20534;DHT22;12929;56.822;26.056;2023-07-29T13:57:12;22.40;99.90
20534;DHT22;12929;56.822;26.056;2023-07-29T13:59:40;22.30;99.90
20534;DHT22;12929;56.822;26.056;2023-07-29T14:02:08;22.50;99.90
20534;DHT22;12929;56.822;26.056;2023-07-29T14:04:35;22.60;99.90
20534;DHT22;12929;56.822;26.056;2023-07-29T14:07:03;22.70;99.90
20534;DHT22;12929;56.822;26.056;2023-07-29T14:09:32;22.90;99.90
20534;DHT22;12929;56.822;26.056;2023-07-29T14:11:59;22.80;99.90
20534;DHT22;12929;56.822;26.056;2023-07-29T14:14:27;22.90;99.90
20534;DHT22;12929;56.822;26.056;2023-07-29T14:16:55;22.70;99.90
20534;DHT22;12929;56.822;26.056;2023-07-29T14:19:23;22.70;99.90
20534;DHT22;12929;56.822;26.056;2023-07-29T14:21:51;23.00;99.90
20534;DHT22;12929;56.822;26.056;2023-07-29T14:24:19;23.10;99.90
20534;DHT22;12929;56.822;26.056;2023-07-29T14:26:48;23.10;99.90
20534;DHT22;12929;56.822;26.056;2023-07-29T14:29:16;22.80;99.90
20534;DHT22;12929;56.822;26.056;2023-07-29T14:31:44;22.90;99.90
20534;DHT22;12929;56.822;26.056;2023-07-29T14:34:12;22.70;99.90
20534;DHT22;12929;56.822;26.056;2023-07-29T14:36:39;22.70;99.90
20534;DHT22;12929;56.822;26.056;2023-07-29T14:39:07;22.00;99.90
20534;DHT22;12929;56.822;26.056;2023-07-29T14:41:35;22.00;99.90
20534;DHT22;12929;56.822;26.056;2023-07-29T14:44:02;22.50;99.90
20534;DHT22;12929;56.822;26.056;2023-07-29T14:46:30;22.80;99.90
20534;DHT22;12929;56.822;26.056;2023-07-29T14:48:58;23.00;99.90
20534;DHT22;12929;56.822;26.056;2023-07-29T14:51:26;23.20;99.90
20534;DHT22;12929;56.822;26.056;2023-07-29T14:53:53;23.10;99.90
20534;DHT22;12929;56.822;26.056;2023-07-29T14:56:21;23.30;99.90
20534;DHT22;12929;56.822;26.056;2023-07-29T14:58:50;23.40;99.90
20534;DHT22;12929;56.822;26.056;2023-07-29T15:01:18;23.30;99.90
20534;DHT22;12929;56.822;26.056;2023-07-29T15:03:46;23.30;99.90
20534;DHT22;12929;56.822;26.056;2023-07-29T15:06:13;23.00;99.90
20534;DHT22;12929;56.822;26.056;2023-07-29T15:08:41;23.00;99.90
20534;DHT22;12929;56.822;26.056;2023-07-29T15:11:09;22.40;99.90
20534;DHT22;12929;56.822;26.056;2023-07-29T15:13:36;22.00;99.90
20534;DHT22;12929;56.822;26.056;2023-07-29T15:16:05;21.90;99.90
20534;DHT22;12929;56.822;26.056;2023-07-29T15:18:32;22.00;99.90
20534;DHT22;12929;56.822;26.056;2023-07-29T15:21:01;22.30;99.90
20534;DHT22;12929;56.822;26.056;2023-07-29T15:23:29;22.80;99.90
20534;DHT22;12929;56.822;26.056;2023-07-29T15:25:58;23.00;99.90
20534;DHT22;12929;56.822;26.056;2023-07-29T15:28:25;22.90;99.90
20534;DHT22;12929;56.822;26.056;2023-07-29T15:30:53;23.00;99.90
20534;DHT22;12929;56.822;26.056;2023-07-29T15:33:21;23.10;99.90